createdAt,value
2022-11-22T00:01:19.642Z,19.30
2022-11-22T00:03:47.875Z,20.07
2022-11-22T00:06:16.051Z,18.57
2022-11-22T00:08:44.233Z,17.93
2022-11-22T00:11:12.453Z,17.57
2022-11-22T00:13:40.601Z,17.40
2022-11-22T00:16:10.166Z,17.90
2022-11-22T00:18:38.360Z,18.13
2022-11-22T00:21:08.049Z,17.87
2022-11-22T00:23:36.415Z,18.60
2022-11-22T00:26:04.712Z,17.93
2022-11-22T00:28:32.858Z,17.70
2022-11-22T00:31:00.975Z,16.87
2022-11-22T00:33:30.666Z,16.87
2022-11-22T00:35:58.824Z,16.57
2022-11-22T00:38:26.981Z,17.03
2022-11-22T00:40:55.176Z,17.03
2022-11-22T00:43:23.446Z,16.27
2022-11-22T00:45:51.661Z,15.47
2022-11-22T00:48:19.945Z,16.23
2022-11-22T00:50:51.391Z,15.27
2022-11-22T00:53:19.778Z,16.00
2022-11-22T00:55:47.982Z,16.43
2022-11-22T00:58:16.173Z,15.40
2022-11-22T01:00:44.985Z,15.60
2022-11-22T01:03:14.416Z,15.37
2022-11-22T01:05:42.609Z,16.07
2022-11-22T01:08:12.165Z,16.23
2022-11-22T01:10:40.373Z,16.93
2022-11-22T01:13:08.532Z,17.70
2022-11-22T01:15:36.748Z,17.50
2022-11-22T01:18:05.020Z,18.00
2022-11-22T01:20:33.292Z,17.97
2022-11-22T01:23:01.449Z,18.73
2022-11-22T01:25:31.011Z,17.57
2022-11-22T01:27:59.167Z,18.40
2022-11-22T01:30:27.399Z,18.57
2022-11-22T01:32:55.577Z,17.90
2022-11-22T01:35:23.752Z,17.83
2022-11-22T01:37:51.946Z,18.37
2022-11-22T01:40:20.491Z,17.63
2022-11-22T01:42:52.669Z,17.50
2022-11-22T01:45:44.354Z,16.70
2022-11-22T01:48:39.132Z,17.60
2022-11-22T01:51:25.717Z,16.13
2022-11-22T01:53:55.817Z,15.93
2022-11-22T01:56:26.551Z,16.93
2022-11-22T01:58:59.976Z,16.13
2022-11-22T02:01:29.725Z,16.10
2022-11-22T02:04:01.184Z,16.43
2022-11-22T02:06:37.324Z,15.63
2022-11-22T02:09:11.672Z,16.40
2022-11-22T02:11:44.381Z,14.50
2022-11-22T02:14:15.040Z,14.57
2022-11-22T02:16:44.769Z,14.70
2022-11-22T02:19:15.989Z,13.87
2022-11-22T02:21:46.985Z,13.87
2022-11-22T02:24:23.886Z,13.37
2022-11-22T02:26:53.445Z,13.73
2022-11-22T02:29:22.365Z,12.77
2022-11-22T02:31:50.630Z,12.90
2022-11-22T02:34:18.767Z,12.47
2022-11-22T02:36:50.057Z,12.77
2022-11-22T02:39:21.357Z,11.53
2022-11-22T02:41:50.227Z,12.87
2022-11-22T02:44:21.593Z,11.73
2022-11-22T02:46:51.974Z,11.67
2022-11-22T02:49:20.953Z,10.70
2022-11-22T02:51:49.830Z,11.23
2022-11-22T02:54:18.027Z,11.00
2022-11-22T02:56:46.520Z,10.97
2022-11-22T02:59:14.892Z,11.17
2022-11-22T03:01:46.108Z,10.37
2022-11-22T03:04:24.761Z,11.30
2022-11-22T03:06:58.001Z,10.23
2022-11-22T03:09:27.296Z,10.43
2022-11-22T03:11:56.401Z,10.20
2022-11-22T03:14:24.940Z,9.80
2022-11-22T03:16:54.590Z,10.37
2022-11-22T03:19:22.868Z,9.60
2022-11-22T03:21:51.470Z,9.23
2022-11-22T03:24:20.500Z,10.23
2022-11-22T03:26:50.074Z,11.17
2022-11-22T03:29:19.063Z,9.33
2022-11-22T03:31:47.234Z,8.17
2022-11-22T03:34:17.423Z,7.67
2022-11-22T03:36:45.693Z,7.70
2022-11-22T03:39:14.017Z,6.97
2022-11-22T03:41:42.181Z,7.00
2022-11-22T03:44:10.389Z,7.83
2022-11-22T03:46:38.576Z,8.17
2022-11-22T03:49:06.742Z,7.27
2022-11-22T03:51:36.369Z,7.97
2022-11-22T03:54:04.630Z,7.67
2022-11-22T03:56:32.815Z,7.00
2022-11-22T03:59:01.189Z,7.13
2022-11-22T04:01:29.733Z,7.57
2022-11-22T04:03:58.107Z,6.60
2022-11-22T04:06:26.326Z,7.10
2022-11-22T04:08:55.930Z,7.03
2022-11-22T04:11:24.201Z,6.90
2022-11-22T04:14:09.816Z,7.63
2022-11-22T04:16:37.959Z,7.53
2022-11-22T04:19:06.144Z,7.50
2022-11-22T04:21:35.910Z,7.30
2022-11-22T04:24:24.933Z,7.33
2022-11-22T04:26:53.367Z,7.20
2022-11-22T04:29:22.102Z,8.00
2022-11-22T04:32:09.376Z,8.30
2022-11-22T04:34:38.136Z,8.00
2022-11-22T04:37:06.830Z,7.77
2022-11-22T04:39:36.421Z,7.37
2022-11-22T04:42:22.070Z,7.33
2022-11-22T04:44:50.307Z,7.17
2022-11-22T04:47:38.104Z,7.77
2022-11-22T04:50:29.064Z,7.00
2022-11-22T04:52:57.665Z,6.27
2022-11-22T04:55:27.438Z,6.30
2022-11-22T04:57:59.652Z,5.80
2022-11-22T05:00:29.624Z,6.30
2022-11-22T05:02:58.216Z,6.47
2022-11-22T05:05:27.200Z,6.70
2022-11-22T05:07:55.434Z,6.97
2022-11-22T05:10:26.850Z,7.00
2022-11-22T05:12:57.329Z,8.57
2022-11-22T05:15:25.567Z,8.00
2022-11-22T05:17:53.705Z,8.03
2022-11-22T05:20:21.828Z,7.93
2022-11-22T05:23:07.394Z,8.60
2022-11-22T05:25:35.578Z,9.47
2022-11-22T05:28:05.163Z,10.20
2022-11-22T05:30:33.357Z,12.13
2022-11-22T05:33:01.571Z,10.60
2022-11-22T05:35:29.933Z,10.50
2022-11-22T05:37:58.209Z,9.57
2022-11-22T05:40:27.047Z,9.87
2022-11-22T05:42:55.420Z,10.30
2022-11-22T05:45:25.046Z,8.57
2022-11-22T05:47:53.197Z,8.83
2022-11-22T05:50:21.390Z,10.03
2022-11-22T05:52:49.622Z,12.43
2022-11-22T05:55:17.804Z,10.00
2022-11-22T05:57:45.933Z,8.87
2022-11-22T06:00:14.817Z,6.60
2022-11-22T06:02:44.503Z,6.30
2022-11-22T06:05:12.672Z,5.67
2022-11-22T06:07:40.931Z,5.33
2022-11-22T06:10:10.133Z,5.17
2022-11-22T06:12:38.314Z,5.10
2022-11-22T06:15:07.212Z,5.17
2022-11-22T06:17:35.457Z,5.37
2022-11-22T06:20:06.665Z,5.63
2022-11-22T06:22:35.201Z,5.17
2022-11-22T06:25:03.435Z,5.40
2022-11-22T06:27:31.606Z,5.30
2022-11-22T06:29:59.786Z,5.17
2022-11-22T06:32:27.938Z,5.00
2022-11-22T06:34:56.148Z,5.10
2022-11-22T06:37:25.709Z,5.57
2022-11-22T06:39:53.918Z,4.83
2022-11-22T06:42:22.088Z,5.07
2022-11-22T06:44:50.293Z,5.13
2022-11-22T06:47:18.668Z,4.73
2022-11-22T06:49:47.294Z,5.33
2022-11-22T06:52:15.557Z,5.00
2022-11-22T06:54:45.081Z,4.93
2022-11-22T06:57:14.964Z,4.73
2022-11-22T06:59:43.153Z,4.80
2022-11-22T07:02:13.272Z,5.00
2022-11-22T07:05:02.239Z,4.37
2022-11-22T07:07:29.954Z,4.47
2022-11-22T07:09:59.534Z,4.10
2022-11-22T07:12:27.802Z,4.80
2022-11-22T07:14:55.996Z,4.50
2022-11-22T07:17:24.199Z,4.57
2022-11-22T07:19:52.357Z,4.67
2022-11-22T07:22:20.541Z,4.33
2022-11-22T07:24:48.723Z,4.83
2022-11-22T07:27:18.299Z,4.30
2022-11-22T07:29:46.544Z,4.97
2022-11-22T07:32:14.686Z,5.27
2022-11-22T07:34:42.859Z,5.27
2022-11-22T07:37:11.041Z,5.57
2022-11-22T07:39:39.186Z,5.50
2022-11-22T07:42:07.462Z,6.47
2022-11-22T07:44:37.032Z,6.17
2022-11-22T07:47:05.252Z,5.93
2022-11-22T07:49:33.431Z,5.80
2022-11-22T07:52:01.584Z,6.00
2022-11-22T07:54:29.780Z,5.60
2022-11-22T07:56:57.976Z,5.30
2022-11-22T07:59:26.470Z,4.93
2022-11-22T08:01:56.235Z,5.40
2022-11-22T08:04:24.523Z,5.70
2022-11-22T08:06:52.743Z,5.87
2022-11-22T08:09:20.886Z,5.70
2022-11-22T08:11:49.069Z,5.30
2022-11-22T08:14:17.573Z,5.50
2022-11-22T08:16:45.702Z,5.83
2022-11-22T08:19:17.859Z,5.50
2022-11-22T08:21:46.645Z,5.57
2022-11-22T08:24:16.154Z,5.40
2022-11-22T08:26:44.732Z,5.33
2022-11-22T08:29:14.486Z,5.20
2022-11-22T08:31:43.065Z,4.80
2022-11-22T08:34:11.262Z,5.00
2022-11-22T08:36:40.890Z,5.07
2022-11-22T08:39:09.213Z,5.07
2022-11-22T08:41:37.397Z,5.10
2022-11-22T08:44:05.971Z,5.17
2022-11-22T08:46:34.131Z,4.97
2022-11-22T08:49:03.926Z,5.50
2022-11-22T08:51:32.612Z,5.23
2022-11-22T08:54:02.150Z,4.70
2022-11-22T08:56:30.437Z,4.63
2022-11-22T08:58:58.679Z,4.50
2022-11-22T09:01:27.042Z,5.27
2022-11-22T09:03:55.456Z,4.60
2022-11-22T09:09:36.503Z,5.40
2022-11-22T09:12:01.354Z,5.00
2022-11-22T09:14:29.700Z,4.80
2022-11-22T09:16:58.118Z,5.00
2022-11-22T09:19:26.615Z,4.40
2022-11-22T09:21:54.813Z,4.33
2022-11-22T09:24:24.323Z,4.60
2022-11-22T09:26:52.542Z,4.43
2022-11-22T09:29:20.704Z,4.07
2022-11-22T09:31:49.382Z,3.60
2022-11-22T09:34:17.563Z,4.17
2022-11-22T09:36:45.699Z,4.57
2022-11-22T09:39:14.058Z,3.90
2022-11-22T09:42:17.174Z,3.80
2022-11-22T09:45:33.686Z,3.53
2022-11-22T09:48:15.282Z,3.77
2022-11-22T09:50:53.217Z,3.10
2022-11-22T09:53:26.024Z,3.40
2022-11-22T09:55:57.385Z,3.17
2022-11-22T09:58:32.291Z,3.23
2022-11-22T10:01:07.153Z,3.20
2022-11-22T10:03:45.722Z,3.27
2022-11-22T10:06:18.197Z,3.30
2022-11-22T10:08:55.576Z,3.17
2022-11-22T10:11:36.833Z,3.47
2022-11-22T10:14:23.637Z,4.10
2022-11-22T10:16:56.654Z,3.23
2022-11-22T10:19:31.246Z,4.70
2022-11-22T10:21:59.861Z,5.27
2022-11-22T10:24:29.457Z,3.53
2022-11-22T10:27:00.782Z,4.10
2022-11-22T10:29:38.552Z,3.80
2022-11-22T10:32:13.030Z,4.07
2022-11-22T10:34:59.766Z,4.00
2022-11-22T10:37:36.917Z,3.53
2022-11-22T10:40:15.485Z,3.33
2022-11-22T10:42:56.539Z,3.70
2022-11-22T10:45:31.494Z,3.77
2022-11-22T10:48:12.258Z,3.53
2022-11-22T10:50:53.844Z,3.67
2022-11-22T10:53:30.758Z,3.30
2022-11-22T10:56:04.254Z,4.07
2022-11-22T10:58:41.872Z,3.50
2022-11-22T11:01:22.459Z,3.37
2022-11-22T11:03:54.930Z,3.23
2022-11-22T11:06:43.549Z,3.00
2022-11-22T11:10:08.990Z,3.10
2022-11-22T11:12:17.645Z,3.10
2022-11-22T11:14:49.701Z,2.90
2022-11-22T11:17:24.461Z,3.00
2022-11-22T11:19:56.730Z,2.90
2022-11-22T11:22:58.515Z,2.30
2022-11-22T11:25:32.525Z,2.80
2022-11-22T11:28:05.419Z,2.83
2022-11-22T11:30:45.472Z,2.50
2022-11-22T11:33:27.483Z,2.90
2022-11-22T11:35:59.026Z,2.70
2022-11-22T11:38:33.558Z,2.30
2022-11-22T11:41:21.445Z,2.53
2022-11-22T11:43:51.993Z,2.90
2022-11-22T11:46:22.087Z,2.80
2022-11-22T11:48:53.012Z,2.53
2022-11-22T11:51:32.694Z,2.87
2022-11-22T11:54:04.156Z,2.80
2022-11-22T11:56:44.538Z,2.73
2022-11-22T11:59:16.124Z,2.60
2022-11-22T12:01:56.612Z,2.60
2022-11-22T12:04:30.077Z,2.63
2022-11-22T12:07:03.926Z,2.63
2022-11-22T12:09:46.255Z,2.77
2022-11-22T12:12:32.312Z,2.47
2022-11-22T12:15:11.591Z,2.70
2022-11-22T12:17:55.688Z,3.00
2022-11-22T12:20:31.563Z,2.70
2022-11-22T12:23:11.106Z,2.50
2022-11-22T12:25:41.026Z,2.73
2022-11-22T12:28:20.341Z,2.70
2022-11-22T12:30:54.665Z,2.43
2022-11-22T12:33:28.201Z,2.83
2022-11-22T12:35:58.964Z,2.30
2022-11-22T12:38:32.867Z,3.03
2022-11-22T12:41:04.895Z,2.90
2022-11-22T12:43:37.905Z,2.50
2022-11-22T12:46:12.040Z,2.50
2022-11-22T12:48:48.697Z,2.43
2022-11-22T12:51:25.717Z,2.53
2022-11-22T12:53:56.580Z,2.20
2022-11-22T12:56:33.354Z,2.27
2022-11-22T12:59:07.775Z,2.57
2022-11-22T13:01:45.296Z,2.40
2022-11-22T13:04:20.710Z,2.77
2022-11-22T13:06:58.180Z,2.67
2022-11-22T13:09:31.481Z,2.40
2022-11-22T13:12:03.737Z,2.73
2022-11-22T13:14:36.791Z,2.70
2022-11-22T13:17:08.605Z,2.50
2022-11-22T13:19:45.309Z,2.43
2022-11-22T13:22:22.222Z,2.63
2022-11-22T13:25:09.036Z,2.13
2022-11-22T13:27:41.727Z,2.20
2022-11-22T13:30:19.961Z,1.80
2022-11-22T13:32:51.620Z,2.20
2022-11-22T13:35:27.449Z,1.60
2022-11-22T13:38:01.365Z,1.97
2022-11-22T13:40:32.458Z,1.87
2022-11-22T13:43:22.490Z,2.10
2022-11-22T13:45:52.146Z,1.90
2022-11-22T13:49:01.965Z,1.90
2022-11-22T13:51:55.925Z,1.50
2022-11-22T13:55:04.622Z,2.10
2022-11-22T13:57:37.841Z,1.87
2022-11-22T14:00:40.297Z,1.97
2022-11-22T14:03:37.717Z,2.00
2022-11-22T14:06:33.137Z,1.90
2022-11-22T14:09:29.304Z,2.10
2022-11-22T14:12:28.974Z,2.10
2022-11-22T14:15:24.886Z,1.87
2022-11-22T14:18:05.435Z,2.10
2022-11-22T14:20:44.281Z,1.93
2022-11-22T14:23:24.431Z,1.53
2022-11-22T14:26:04.620Z,2.20
2022-11-22T14:28:57.626Z,1.70
2022-11-22T14:31:28.448Z,1.87
2022-11-22T14:34:19.978Z,1.60
2022-11-22T14:37:27.070Z,1.80
2022-11-22T14:40:14.048Z,1.83
2022-11-22T14:42:57.182Z,1.80
2022-11-22T14:45:42.127Z,1.80
2022-11-22T14:48:21.734Z,1.80
2022-11-22T14:50:53.823Z,2.00
2022-11-22T14:53:29.382Z,2.23
2022-11-22T14:56:05.453Z,1.93
2022-11-22T14:58:39.374Z,1.73
2022-11-22T15:01:38.729Z,1.80
2022-11-22T15:09:18.217Z,1.87
2022-11-22T15:09:19.463Z,1.90
2022-11-22T15:10:59.951Z,1.67
2022-11-22T15:13:47.614Z,1.90
2022-11-22T15:57:32.742Z,1.50
2022-11-22T16:00:01.761Z,1.80
2022-11-22T16:02:32.444Z,1.53
2022-11-22T16:06:05.855Z,1.70
2022-11-22T16:07:54.555Z,1.70
2022-11-22T16:10:24.798Z,1.77
2022-11-22T16:12:53.736Z,1.70
2022-11-22T16:15:30.435Z,1.53
2022-11-22T16:18:09.064Z,1.80
2022-11-22T16:20:40.051Z,1.60
2022-11-22T16:23:25.290Z,1.70
2022-11-22T16:25:56.803Z,1.63
2022-11-22T16:28:32.338Z,1.50
2022-11-22T16:31:03.087Z,1.60
2022-11-22T16:33:31.881Z,1.70
2022-11-22T16:36:02.312Z,1.83
2022-11-22T16:38:31.018Z,1.87
2022-11-22T16:41:00.275Z,1.40
2022-11-22T16:43:35.214Z,1.77
2022-11-22T16:46:03.757Z,1.50
2022-11-22T16:48:33.289Z,1.57
2022-11-22T16:51:06.504Z,1.90
2022-11-22T16:53:43.316Z,1.57
2022-11-22T16:56:18.465Z,1.90
2022-11-22T16:58:46.703Z,1.60
2022-11-22T17:01:17.059Z,1.70
2022-11-22T17:03:46.632Z,1.30
2022-11-22T17:06:18.771Z,1.43
2022-11-22T17:08:47.525Z,1.60
2022-11-22T17:11:17.841Z,1.70
2022-11-22T17:13:46.250Z,1.60
2022-11-22T17:16:15.289Z,1.40
2022-11-22T17:18:43.489Z,1.50
2022-11-22T17:21:19.382Z,1.43
2022-11-22T17:23:48.246Z,1.70
2022-11-22T17:26:16.398Z,1.80
2022-11-22T17:28:44.693Z,1.60
2022-11-22T17:31:14.916Z,1.50
2022-11-22T17:33:43.285Z,1.50
2022-11-22T17:36:24.357Z,1.50
2022-11-22T17:38:52.544Z,1.57
2022-11-22T17:41:20.951Z,1.60
2022-11-22T17:43:49.200Z,1.80
2022-11-22T17:46:17.482Z,1.70
2022-11-22T17:48:45.718Z,1.77
2022-11-22T17:51:14.421Z,1.53
2022-11-22T17:53:44.208Z,1.70
2022-11-22T17:56:12.811Z,1.90
2022-11-22T17:58:41.438Z,1.77
2022-11-22T18:01:11.852Z,1.60
2022-11-22T18:03:40.768Z,1.70
2022-11-22T18:06:09.960Z,1.40
2022-11-22T18:08:42.472Z,1.70
2022-11-22T18:11:15.465Z,1.70
2022-11-22T18:13:44.349Z,1.63
2022-11-22T18:16:15.468Z,1.60
2022-11-22T18:18:59.518Z,1.70
2022-11-22T18:21:29.189Z,1.57
2022-11-22T18:23:58.690Z,1.60
2022-11-22T18:26:43.971Z,1.60
2022-11-22T18:32:02.508Z,1.73
2022-11-22T18:34:31.512Z,1.70
2022-11-22T18:37:03.586Z,1.60
2022-11-22T18:39:34.039Z,1.70
2022-11-22T18:42:04.212Z,1.57
2022-11-22T18:44:32.795Z,1.50
2022-11-22T18:47:01.298Z,1.63
2022-11-22T18:49:30.314Z,1.50
2022-11-22T18:51:59.070Z,1.50
2022-11-22T18:54:27.539Z,1.30
2022-11-22T18:56:55.953Z,1.40
2022-11-22T18:59:25.822Z,1.43
2022-11-22T19:01:54.310Z,1.60
2022-11-22T19:04:22.933Z,1.60
2022-11-22T19:06:51.719Z,1.87
2022-11-22T19:09:20.240Z,1.60
2022-11-22T19:11:48.688Z,1.70
2022-11-22T19:14:17.189Z,1.63
2022-11-22T19:16:47.034Z,1.60
2022-11-22T19:19:15.442Z,1.70
2022-11-22T19:21:43.884Z,1.63
2022-11-22T19:24:12.484Z,1.77
2022-11-22T19:26:40.920Z,1.57
2022-11-22T19:29:09.469Z,1.80
2022-11-22T19:31:37.960Z,1.60
2022-11-22T19:34:07.817Z,1.47
2022-11-22T19:36:36.260Z,1.70
2022-11-22T19:39:04.955Z,1.70
2022-11-22T19:41:33.498Z,1.67
2022-11-22T19:44:02.100Z,1.60
2022-11-22T19:46:31.017Z,1.70
2022-11-22T19:49:01.191Z,1.80
2022-11-22T19:51:31.967Z,1.70
2022-11-22T19:54:02.145Z,1.90
2022-11-22T19:56:31.606Z,1.50
2022-11-22T19:59:00.785Z,1.60
2022-11-22T20:01:30.399Z,1.50
2022-11-22T20:03:59.771Z,1.63
2022-11-22T20:06:28.672Z,1.80
2022-11-22T20:09:02.908Z,1.60
2022-11-22T20:11:31.444Z,1.50
2022-11-22T20:13:59.899Z,1.60
2022-11-22T20:16:29.259Z,1.70
2022-11-22T20:18:58.413Z,1.67
2022-11-22T20:21:27.386Z,1.70
2022-11-22T20:23:56.786Z,1.80
2022-11-22T20:26:27.017Z,1.53
2022-11-22T20:28:56.796Z,1.77
2022-11-22T20:31:25.429Z,1.57
2022-11-22T20:33:55.198Z,1.80
2022-11-22T20:36:24.373Z,1.90
2022-11-22T20:38:53.623Z,1.60
2022-11-22T20:41:23.144Z,1.70
2022-11-22T20:43:53.119Z,1.70
2022-11-22T20:46:22.336Z,1.90
2022-11-22T20:48:52.712Z,1.80
2022-11-22T20:51:22.082Z,1.80
2022-11-22T20:53:50.611Z,1.80
2022-11-22T20:56:19.369Z,1.70
2022-11-22T20:58:48.183Z,1.50
2022-11-22T21:01:19.107Z,1.57
2022-11-22T21:03:47.846Z,1.70
2022-11-22T21:06:17.021Z,1.67
2022-11-22T21:08:45.975Z,1.60
2022-11-22T21:11:15.314Z,1.50
2022-11-22T21:13:44.601Z,1.50
2022-11-22T21:16:22.875Z,1.60
2022-11-22T21:18:53.874Z,1.50
2022-11-22T21:21:23.950Z,1.57
2022-11-22T21:23:53.512Z,1.43
2022-11-22T21:26:22.257Z,1.40
2022-11-22T21:28:51.141Z,1.23
2022-11-22T21:31:19.905Z,1.57
2022-11-22T21:33:48.639Z,1.40
2022-11-22T21:36:18.807Z,1.40
2022-11-22T21:38:47.321Z,1.50
2022-11-22T21:44:05.351Z,1.50
2022-11-22T21:46:33.803Z,1.60
2022-11-22T21:49:02.203Z,1.50
2022-11-22T21:51:32.152Z,1.50
2022-11-22T21:54:01.259Z,1.50
2022-11-22T21:56:30.114Z,1.47
2022-11-22T21:58:58.737Z,1.40
2022-11-22T22:01:27.753Z,1.50
2022-11-22T22:03:56.492Z,1.50
2022-11-22T22:06:25.172Z,1.50
2022-11-22T22:08:55.177Z,1.40
2022-11-22T22:11:23.653Z,1.60
2022-11-22T22:13:54.114Z,1.53
2022-11-22T22:16:25.886Z,1.30
2022-11-22T22:18:54.979Z,1.60
2022-11-22T22:21:23.423Z,1.43
2022-11-22T22:23:51.880Z,1.50
2022-11-22T22:26:21.728Z,1.33
2022-11-22T22:28:50.164Z,1.57
2022-11-22T22:31:21.683Z,1.60
2022-11-22T22:33:50.997Z,1.40
2022-11-22T22:36:19.468Z,1.50
2022-11-22T22:38:47.935Z,1.40
2022-11-22T22:41:16.478Z,1.50
2022-11-22T22:43:46.844Z,1.40
2022-11-22T22:46:16.174Z,1.60
2022-11-22T22:48:44.733Z,1.40
2022-11-22T22:51:13.649Z,1.60
2022-11-22T22:53:42.108Z,1.60
2022-11-22T22:56:10.630Z,1.53
2022-11-22T22:58:39.099Z,1.57
2022-11-22T23:01:10.431Z,1.60
2022-11-22T23:03:39.022Z,1.50
2022-11-22T23:06:08.240Z,1.77
2022-11-22T23:08:36.844Z,1.80
2022-11-22T23:11:06.421Z,1.60
2022-11-22T23:13:35.945Z,1.80
2022-11-22T23:16:04.449Z,1.53
2022-11-22T23:18:36.239Z,1.70
2022-11-22T23:21:05.592Z,1.60
2022-11-22T23:23:34.296Z,1.70
2022-11-22T23:26:03.251Z,1.60
2022-11-22T23:28:31.762Z,1.63
2022-11-22T23:31:05.443Z,1.80
2022-11-22T23:33:35.336Z,1.97
2022-11-22T23:36:04.736Z,1.60
2022-11-22T23:38:33.268Z,1.83
2022-11-22T23:41:01.782Z,1.80
2022-11-22T23:43:30.543Z,1.60
2022-11-22T23:45:59.429Z,1.50
2022-11-22T23:48:28.025Z,1.70
2022-11-22T23:50:57.567Z,1.50
2022-11-22T23:53:25.714Z,1.90
2022-11-22T23:55:53.866Z,1.73
2022-11-22T23:58:22.058Z,1.83
